sensor_id;sensor_type;location;lat;lon;timestamp;P1;durP1;ratioP1;P2;durP2;ratioP2
52320;SDS011;38261;54.090;13.382;2023-02-28T00:00:51;11.60;;;5.60;;
52320;SDS011;38261;54.090;13.382;2023-02-28T00:02:13;19.93;;;5.43;;
52320;SDS011;38261;54.090;13.382;2023-02-28T00:03:35;14.40;;;5.40;;
52320;SDS011;38261;54.090;13.382;2023-02-28T00:04:58;11.30;;;4.87;;
52320;SDS011;38261;54.090;13.382;2023-02-28T00:06:22;8.27;;;4.90;;
52320;SDS011;38261;54.090;13.382;2023-02-28T00:07:45;8.20;;;5.00;;
52320;SDS011;38261;54.090;13.382;2023-02-28T00:09:08;7.87;;;5.03;;
52320;SDS011;38261;54.090;13.382;2023-02-28T00:10:30;11.00;;;5.27;;
52320;SDS011;38261;54.090;13.382;2023-02-28T00:11:53;10.13;;;5.13;;
52320;SDS011;38261;54.090;13.382;2023-02-28T00:13:15;7.37;;;4.27;;
52320;SDS011;38261;54.090;13.382;2023-02-28T00:14:38;14.37;;;4.43;;
52320;SDS011;38261;54.090;13.382;2023-02-28T00:16:02;8.93;;;4.30;;
52320;SDS011;38261;54.090;13.382;2023-02-28T00:17:30;12.47;;;4.33;;
52320;SDS011;38261;54.090;13.382;2023-02-28T00:18:52;11.10;;;4.70;;
52320;SDS011;38261;54.090;13.382;2023-02-28T00:21:37;12.47;;;4.10;;
52320;SDS011;38261;54.090;13.382;2023-02-28T00:23:02;12.07;;;4.50;;
52320;SDS011;38261;54.090;13.382;2023-02-28T00:24:24;10.23;;;4.33;;
52320;SDS011;38261;54.090;13.382;2023-02-28T00:25:46;7.30;;;4.87;;
52320;SDS011;38261;54.090;13.382;2023-02-28T00:27:08;6.93;;;3.73;;
52320;SDS011;38261;54.090;13.382;2023-02-28T00:28:31;11.17;;;4.60;;
52320;SDS011;38261;54.090;13.382;2023-02-28T00:29:53;10.13;;;3.30;;
52320;SDS011;38261;54.090;13.382;2023-02-28T00:31:15;5.47;;;3.50;;
52320;SDS011;38261;54.090;13.382;2023-02-28T00:32:38;7.87;;;4.70;;
52320;SDS011;38261;54.090;13.382;2023-02-28T00:34:00;9.60;;;4.67;;
52320;SDS011;38261;54.090;13.382;2023-02-28T00:35:22;11.73;;;4.07;;
52320;SDS011;38261;54.090;13.382;2023-02-28T00:36:44;8.77;;;4.20;;
52320;SDS011;38261;54.090;13.382;2023-02-28T00:38:10;5.67;;;3.27;;
52320;SDS011;38261;54.090;13.382;2023-02-28T00:39:36;6.03;;;2.80;;
52320;SDS011;38261;54.090;13.382;2023-02-28T00:40:59;11.03;;;3.43;;
52320;SDS011;38261;54.090;13.382;2023-02-28T00:42:25;8.77;;;3.70;;
52320;SDS011;38261;54.090;13.382;2023-02-28T00:43:48;5.73;;;2.93;;
52320;SDS011;38261;54.090;13.382;2023-02-28T00:45:10;6.20;;;3.33;;
52320;SDS011;38261;54.090;13.382;2023-02-28T00:46:32;3.70;;;2.20;;
52320;SDS011;38261;54.090;13.382;2023-02-28T00:47:54;8.83;;;3.03;;
52320;SDS011;38261;54.090;13.382;2023-02-28T00:49:17;6.07;;;3.10;;
52320;SDS011;38261;54.090;13.382;2023-02-28T00:50:39;6.10;;;2.87;;
52320;SDS011;38261;54.090;13.382;2023-02-28T00:52:01;4.30;;;2.43;;
52320;SDS011;38261;54.090;13.382;2023-02-28T00:53:23;4.70;;;2.30;;
52320;SDS011;38261;54.090;13.382;2023-02-28T00:54:45;7.83;;;3.73;;
52320;SDS011;38261;54.090;13.382;2023-02-28T00:56:08;6.30;;;2.77;;
52320;SDS011;38261;54.090;13.382;2023-02-28T00:57:30;5.07;;;2.97;;
52320;SDS011;38261;54.090;13.382;2023-02-28T00:58:52;6.67;;;3.00;;
52320;SDS011;38261;54.090;13.382;2023-02-28T01:00:14;5.37;;;2.67;;
52320;SDS011;38261;54.090;13.382;2023-02-28T01:01:36;5.33;;;2.83;;
52320;SDS011;38261;54.090;13.382;2023-02-28T01:02:58;9.20;;;3.70;;
52320;SDS011;38261;54.090;13.382;2023-02-28T01:04:20;6.50;;;2.87;;
52320;SDS011;38261;54.090;13.382;2023-02-28T01:05:43;6.10;;;2.50;;
52320;SDS011;38261;54.090;13.382;2023-02-28T01:07:05;4.93;;;2.60;;
52320;SDS011;38261;54.090;13.382;2023-02-28T01:08:27;9.23;;;2.90;;
52320;SDS011;38261;54.090;13.382;2023-02-28T01:09:49;7.50;;;2.63;;
52320;SDS011;38261;54.090;13.382;2023-02-28T01:11:13;7.00;;;2.87;;
52320;SDS011;38261;54.090;13.382;2023-02-28T01:12:37;4.27;;;3.33;;
52320;SDS011;38261;54.090;13.382;2023-02-28T01:13:59;8.27;;;3.10;;
52320;SDS011;38261;54.090;13.382;2023-02-28T01:15:21;7.80;;;2.67;;
52320;SDS011;38261;54.090;13.382;2023-02-28T01:16:44;6.13;;;2.67;;
52320;SDS011;38261;54.090;13.382;2023-02-28T01:18:06;3.50;;;2.70;;
52320;SDS011;38261;54.090;13.382;2023-02-28T01:19:28;9.50;;;3.10;;
52320;SDS011;38261;54.090;13.382;2023-02-28T01:20:50;9.00;;;3.30;;
52320;SDS011;38261;54.090;13.382;2023-02-28T01:22:13;4.20;;;2.57;;
52320;SDS011;38261;54.090;13.382;2023-02-28T01:23:35;6.03;;;2.90;;
52320;SDS011;38261;54.090;13.382;2023-02-28T01:24:57;4.40;;;2.57;;
52320;SDS011;38261;54.090;13.382;2023-02-28T01:26:20;7.63;;;3.40;;
52320;SDS011;38261;54.090;13.382;2023-02-28T01:27:43;4.00;;;2.77;;
52320;SDS011;38261;54.090;13.382;2023-02-28T01:29:05;5.33;;;2.67;;
52320;SDS011;38261;54.090;13.382;2023-02-28T01:30:27;4.70;;;2.70;;
52320;SDS011;38261;54.090;13.382;2023-02-28T01:31:50;6.50;;;3.03;;
52320;SDS011;38261;54.090;13.382;2023-02-28T01:33:12;7.87;;;3.20;;
52320;SDS011;38261;54.090;13.382;2023-02-28T01:34:34;3.43;;;2.77;;
52320;SDS011;38261;54.090;13.382;2023-02-28T01:36:04;6.43;;;2.37;;
52320;SDS011;38261;54.090;13.382;2023-02-28T01:37:27;6.93;;;3.00;;
52320;SDS011;38261;54.090;13.382;2023-02-28T01:38:49;4.50;;;3.30;;
52320;SDS011;38261;54.090;13.382;2023-02-28T01:40:12;3.73;;;2.57;;
52320;SDS011;38261;54.090;13.382;2023-02-28T01:41:35;6.53;;;3.40;;
52320;SDS011;38261;54.090;13.382;2023-02-28T01:42:57;5.33;;;3.43;;
52320;SDS011;38261;54.090;13.382;2023-02-28T01:46:19;7.70;;;2.67;;
52320;SDS011;38261;54.090;13.382;2023-02-28T01:47:42;7.17;;;2.67;;
52320;SDS011;38261;54.090;13.382;2023-02-28T01:49:15;5.20;;;2.67;;
52320;SDS011;38261;54.090;13.382;2023-02-28T01:50:40;3.47;;;2.57;;
52320;SDS011;38261;54.090;13.382;2023-02-28T01:52:05;4.17;;;2.63;;
52320;SDS011;38261;54.090;13.382;2023-02-28T01:53:38;5.10;;;2.43;;
52320;SDS011;38261;54.090;13.382;2023-02-28T01:55:05;3.87;;;2.50;;
52320;SDS011;38261;54.090;13.382;2023-02-28T01:56:30;6.10;;;2.80;;
52320;SDS011;38261;54.090;13.382;2023-02-28T01:57:58;5.90;;;2.47;;
52320;SDS011;38261;54.090;13.382;2023-02-28T02:01:26;9.77;;;3.83;;
52320;SDS011;38261;54.090;13.382;2023-02-28T02:02:51;4.10;;;2.33;;
52320;SDS011;38261;54.090;13.382;2023-02-28T02:04:17;4.50;;;2.17;;
52320;SDS011;38261;54.090;13.382;2023-02-28T02:05:40;5.97;;;2.27;;
52320;SDS011;38261;54.090;13.382;2023-02-28T02:07:03;3.77;;;2.20;;
52320;SDS011;38261;54.090;13.382;2023-02-28T02:08:26;5.33;;;2.63;;
52320;SDS011;38261;54.090;13.382;2023-02-28T02:09:50;6.07;;;2.83;;
52320;SDS011;38261;54.090;13.382;2023-02-28T02:11:22;4.97;;;2.30;;
52320;SDS011;38261;54.090;13.382;2023-02-28T02:16:08;8.40;;;2.57;;
52320;SDS011;38261;54.090;13.382;2023-02-28T02:17:36;4.97;;;2.23;;
52320;SDS011;38261;54.090;13.382;2023-02-28T02:19:07;5.73;;;2.60;;
52320;SDS011;38261;54.090;13.382;2023-02-28T02:20:40;2.93;;;2.73;;
52320;SDS011;38261;54.090;13.382;2023-02-28T02:22:48;3.67;;;2.60;;
52320;SDS011;38261;54.090;13.382;2023-02-28T02:25:56;4.30;;;2.47;;
52320;SDS011;38261;54.090;13.382;2023-02-28T02:31:22;2.90;;;2.50;;
52320;SDS011;38261;54.090;13.382;2023-02-28T02:32:58;2.47;;;2.27;;
52320;SDS011;38261;54.090;13.382;2023-02-28T02:36:13;4.07;;;2.60;;
52320;SDS011;38261;54.090;13.382;2023-02-28T02:39:22;3.43;;;2.10;;
52320;SDS011;38261;54.090;13.382;2023-02-28T02:42:25;3.07;;;2.43;;
52320;SDS011;38261;54.090;13.382;2023-02-28T02:43:56;7.00;;;2.60;;
52320;SDS011;38261;54.090;13.382;2023-02-28T02:45:46;3.80;;;2.07;;
52320;SDS011;38261;54.090;13.382;2023-02-28T02:47:17;2.50;;;1.97;;
52320;SDS011;38261;54.090;13.382;2023-02-28T02:48:42;5.80;;;2.53;;
52320;SDS011;38261;54.090;13.382;2023-02-28T02:50:08;4.33;;;2.43;;
52320;SDS011;38261;54.090;13.382;2023-02-28T02:51:35;11.57;;;2.87;;
52320;SDS011;38261;54.090;13.382;2023-02-28T02:53:00;2.47;;;2.03;;
52320;SDS011;38261;54.090;13.382;2023-02-28T02:54:24;3.20;;;2.20;;
52320;SDS011;38261;54.090;13.382;2023-02-28T02:55:50;1.70;;;1.60;;
52320;SDS011;38261;54.090;13.382;2023-02-28T02:57:18;3.73;;;2.77;;
52320;SDS011;38261;54.090;13.382;2023-02-28T02:58:47;3.33;;;2.27;;
52320;SDS011;38261;54.090;13.382;2023-02-28T03:00:12;8.83;;;2.37;;
52320;SDS011;38261;54.090;13.382;2023-02-28T03:01:38;5.03;;;2.13;;
52320;SDS011;38261;54.090;13.382;2023-02-28T03:03:02;3.17;;;2.50;;
52320;SDS011;38261;54.090;13.382;2023-02-28T03:04:26;3.83;;;2.30;;
52320;SDS011;38261;54.090;13.382;2023-02-28T03:05:54;4.17;;;2.13;;
52320;SDS011;38261;54.090;13.382;2023-02-28T03:07:18;3.40;;;2.00;;
52320;SDS011;38261;54.090;13.382;2023-02-28T03:08:40;2.03;;;1.70;;
52320;SDS011;38261;54.090;13.382;2023-02-28T03:10:02;2.37;;;2.10;;
52320;SDS011;38261;54.090;13.382;2023-02-28T03:11:45;4.33;;;1.50;;
52320;SDS011;38261;54.090;13.382;2023-02-28T03:16:59;6.90;;;2.27;;
52320;SDS011;38261;54.090;13.382;2023-02-28T03:23:31;2.87;;;1.97;;
52320;SDS011;38261;54.090;13.382;2023-02-28T03:25:20;2.53;;;2.10;;
52320;SDS011;38261;54.090;13.382;2023-02-28T03:26:58;3.83;;;2.00;;
52320;SDS011;38261;54.090;13.382;2023-02-28T03:31:45;3.90;;;1.50;;
52320;SDS011;38261;54.090;13.382;2023-02-28T03:33:14;3.27;;;1.70;;
52320;SDS011;38261;54.090;13.382;2023-02-28T03:34:41;2.80;;;1.50;;
52320;SDS011;38261;54.090;13.382;2023-02-28T03:36:38;3.47;;;1.43;;
52320;SDS011;38261;54.090;13.382;2023-02-28T03:38:09;3.30;;;2.47;;
52320;SDS011;38261;54.090;13.382;2023-02-28T03:39:39;3.30;;;1.80;;
52320;SDS011;38261;54.090;13.382;2023-02-28T03:41:07;3.83;;;1.90;;
52320;SDS011;38261;54.090;13.382;2023-02-28T03:42:41;2.60;;;1.80;;
52320;SDS011;38261;54.090;13.382;2023-02-28T03:44:07;4.30;;;1.70;;
52320;SDS011;38261;54.090;13.382;2023-02-28T03:45:37;3.27;;;1.87;;
52320;SDS011;38261;54.090;13.382;2023-02-28T03:47:03;2.97;;;1.60;;
52320;SDS011;38261;54.090;13.382;2023-02-28T03:48:34;5.13;;;2.33;;
52320;SDS011;38261;54.090;13.382;2023-02-28T03:50:07;4.37;;;1.60;;
52320;SDS011;38261;54.090;13.382;2023-02-28T03:51:43;2.20;;;1.60;;
52320;SDS011;38261;54.090;13.382;2023-02-28T03:54:50;4.20;;;1.80;;
52320;SDS011;38261;54.090;13.382;2023-02-28T03:56:22;3.53;;;1.40;;
52320;SDS011;38261;54.090;13.382;2023-02-28T03:59:32;2.40;;;1.80;;
52320;SDS011;38261;54.090;13.382;2023-02-28T04:01:07;4.17;;;1.60;;
52320;SDS011;38261;54.090;13.382;2023-02-28T04:02:34;5.13;;;1.80;;
52320;SDS011;38261;54.090;13.382;2023-02-28T04:03:56;2.10;;;1.60;;
52320;SDS011;38261;54.090;13.382;2023-02-28T04:05:19;3.60;;;1.83;;
52320;SDS011;38261;54.090;13.382;2023-02-28T04:06:42;5.67;;;1.53;;
52320;SDS011;38261;54.090;13.382;2023-02-28T04:08:05;8.23;;;1.53;;
52320;SDS011;38261;54.090;13.382;2023-02-28T04:09:28;2.97;;;1.60;;
52320;SDS011;38261;54.090;13.382;2023-02-28T04:11:16;3.60;;;2.07;;
52320;SDS011;38261;54.090;13.382;2023-02-28T04:12:44;2.63;;;1.40;;
52320;SDS011;38261;54.090;13.382;2023-02-28T04:14:07;1.50;;;1.40;;
52320;SDS011;38261;54.090;13.382;2023-02-28T04:15:30;3.00;;;1.63;;
52320;SDS011;38261;54.090;13.382;2023-02-28T04:16:53;4.50;;;2.03;;
52320;SDS011;38261;54.090;13.382;2023-02-28T04:18:15;2.80;;;1.90;;
52320;SDS011;38261;54.090;13.382;2023-02-28T04:19:37;5.13;;;2.03;;
52320;SDS011;38261;54.090;13.382;2023-02-28T04:20:59;4.73;;;1.90;;
52320;SDS011;38261;54.090;13.382;2023-02-28T04:22:21;2.07;;;1.40;;
52320;SDS011;38261;54.090;13.382;2023-02-28T04:23:47;3.10;;;1.93;;
52320;SDS011;38261;54.090;13.382;2023-02-28T04:25:09;2.27;;;1.70;;
52320;SDS011;38261;54.090;13.382;2023-02-28T04:26:31;1.73;;;1.50;;
52320;SDS011;38261;54.090;13.382;2023-02-28T04:27:55;1.80;;;1.50;;
52320;SDS011;38261;54.090;13.382;2023-02-28T04:29:21;4.33;;;1.60;;
52320;SDS011;38261;54.090;13.382;2023-02-28T04:30:54;2.67;;;1.73;;
52320;SDS011;38261;54.090;13.382;2023-02-28T04:32:20;1.73;;;1.37;;
52320;SDS011;38261;54.090;13.382;2023-02-28T04:33:42;2.30;;;1.53;;
52320;SDS011;38261;54.090;13.382;2023-02-28T04:35:05;3.13;;;1.60;;
52320;SDS011;38261;54.090;13.382;2023-02-28T04:36:27;2.17;;;1.53;;
52320;SDS011;38261;54.090;13.382;2023-02-28T04:37:50;3.03;;;2.83;;
52320;SDS011;38261;54.090;13.382;2023-02-28T04:39:12;2.40;;;1.60;;
52320;SDS011;38261;54.090;13.382;2023-02-28T04:40:35;2.40;;;1.47;;
52320;SDS011;38261;54.090;13.382;2023-02-28T04:41:57;3.30;;;1.53;;
52320;SDS011;38261;54.090;13.382;2023-02-28T04:43:19;3.47;;;1.63;;
52320;SDS011;38261;54.090;13.382;2023-02-28T04:44:41;5.60;;;1.83;;
52320;SDS011;38261;54.090;13.382;2023-02-28T04:46:03;7.83;;;2.37;;
52320;SDS011;38261;54.090;13.382;2023-02-28T04:47:26;6.03;;;1.70;;
52320;SDS011;38261;54.090;13.382;2023-02-28T04:48:48;3.67;;;2.33;;
52320;SDS011;38261;54.090;13.382;2023-02-28T04:50:11;1.80;;;1.70;;
52320;SDS011;38261;54.090;13.382;2023-02-28T04:51:33;3.33;;;1.70;;
52320;SDS011;38261;54.090;13.382;2023-02-28T04:52:55;4.97;;;1.97;;
52320;SDS011;38261;54.090;13.382;2023-02-28T04:54:18;3.17;;;1.50;;
52320;SDS011;38261;54.090;13.382;2023-02-28T04:55:40;2.33;;;1.50;;
52320;SDS011;38261;54.090;13.382;2023-02-28T04:57:02;2.13;;;1.60;;
52320;SDS011;38261;54.090;13.382;2023-02-28T04:58:25;4.00;;;1.87;;
52320;SDS011;38261;54.090;13.382;2023-02-28T04:59:49;2.97;;;2.03;;
52320;SDS011;38261;54.090;13.382;2023-02-28T05:01:45;2.17;;;1.80;;
52320;SDS011;38261;54.090;13.382;2023-02-28T05:02:59;4.20;;;1.70;;
52320;SDS011;38261;54.090;13.382;2023-02-28T05:04:21;3.90;;;2.23;;
52320;SDS011;38261;54.090;13.382;2023-02-28T05:05:43;3.13;;;1.97;;
52320;SDS011;38261;54.090;13.382;2023-02-28T05:07:06;2.43;;;1.50;;
52320;SDS011;38261;54.090;13.382;2023-02-28T05:08:28;2.13;;;1.80;;
52320;SDS011;38261;54.090;13.382;2023-02-28T05:09:51;2.67;;;1.77;;
52320;SDS011;38261;54.090;13.382;2023-02-28T05:11:21;3.00;;;1.90;;
52320;SDS011;38261;54.090;13.382;2023-02-28T05:12:51;2.30;;;1.63;;
52320;SDS011;38261;54.090;13.382;2023-02-28T05:14:13;3.97;;;2.30;;
52320;SDS011;38261;54.090;13.382;2023-02-28T05:15:36;6.63;;;2.00;;
52320;SDS011;38261;54.090;13.382;2023-02-28T05:16:58;3.20;;;1.93;;
52320;SDS011;38261;54.090;13.382;2023-02-28T05:18:20;5.57;;;2.87;;
52320;SDS011;38261;54.090;13.382;2023-02-28T05:19:42;5.00;;;2.30;;
52320;SDS011;38261;54.090;13.382;2023-02-28T05:21:04;5.13;;;2.67;;
52320;SDS011;38261;54.090;13.382;2023-02-28T05:22:26;3.63;;;2.53;;
52320;SDS011;38261;54.090;13.382;2023-02-28T05:23:48;2.40;;;2.00;;
52320;SDS011;38261;54.090;13.382;2023-02-28T05:25:11;2.83;;;2.07;;
52320;SDS011;38261;54.090;13.382;2023-02-28T05:26:38;3.40;;;2.00;;
52320;SDS011;38261;54.090;13.382;2023-02-28T05:28:03;2.43;;;2.20;;
52320;SDS011;38261;54.090;13.382;2023-02-28T05:29:25;4.67;;;2.57;;
52320;SDS011;38261;54.090;13.382;2023-02-28T05:30:47;2.00;;;1.83;;
52320;SDS011;38261;54.090;13.382;2023-02-28T05:32:10;3.40;;;2.40;;
52320;SDS011;38261;54.090;13.382;2023-02-28T05:33:33;4.77;;;2.90;;
52320;SDS011;38261;54.090;13.382;2023-02-28T05:34:55;3.87;;;2.50;;
52320;SDS011;38261;54.090;13.382;2023-02-28T05:36:17;4.70;;;2.97;;
52320;SDS011;38261;54.090;13.382;2023-02-28T05:37:39;3.40;;;2.60;;
52320;SDS011;38261;54.090;13.382;2023-02-28T05:39:01;5.80;;;3.20;;
52320;SDS011;38261;54.090;13.382;2023-02-28T05:40:24;3.87;;;2.60;;
52320;SDS011;38261;54.090;13.382;2023-02-28T05:41:46;7.87;;;2.93;;
52320;SDS011;38261;54.090;13.382;2023-02-28T05:43:09;3.13;;;2.00;;
52320;SDS011;38261;54.090;13.382;2023-02-28T05:44:33;5.60;;;2.90;;
52320;SDS011;38261;54.090;13.382;2023-02-28T05:45:55;8.13;;;3.27;;
52320;SDS011;38261;54.090;13.382;2023-02-28T05:47:17;6.93;;;3.07;;
52320;SDS011;38261;54.090;13.382;2023-02-28T05:48:40;4.80;;;3.40;;
52320;SDS011;38261;54.090;13.382;2023-02-28T05:50:04;7.73;;;4.63;;
52320;SDS011;38261;54.090;13.382;2023-02-28T05:51:26;11.67;;;6.20;;
52320;SDS011;38261;54.090;13.382;2023-02-28T05:52:50;13.63;;;6.30;;
52320;SDS011;38261;54.090;13.382;2023-02-28T05:54:13;19.87;;;6.23;;
52320;SDS011;38261;54.090;13.382;2023-02-28T05:55:35;10.23;;;5.13;;
52320;SDS011;38261;54.090;13.382;2023-02-28T05:56:58;13.40;;;6.33;;
52320;SDS011;38261;54.090;13.382;2023-02-28T05:58:21;10.93;;;5.00;;
52320;SDS011;38261;54.090;13.382;2023-02-28T05:59:43;11.10;;;4.50;;
52320;SDS011;38261;54.090;13.382;2023-02-28T06:01:25;9.20;;;5.80;;
52320;SDS011;38261;54.090;13.382;2023-02-28T06:02:59;8.77;;;3.93;;
52320;SDS011;38261;54.090;13.382;2023-02-28T06:04:23;7.37;;;4.00;;
52320;SDS011;38261;54.090;13.382;2023-02-28T06:05:52;7.93;;;4.50;;
52320;SDS011;38261;54.090;13.382;2023-02-28T06:07:15;6.93;;;4.50;;
52320;SDS011;38261;54.090;13.382;2023-02-28T06:08:39;7.83;;;4.80;;
52320;SDS011;38261;54.090;13.382;2023-02-28T06:10:01;10.10;;;4.37;;
52320;SDS011;38261;54.090;13.382;2023-02-28T06:11:23;8.77;;;4.13;;
52320;SDS011;38261;54.090;13.382;2023-02-28T06:12:49;3.17;;;2.87;;
52320;SDS011;38261;54.090;13.382;2023-02-28T06:14:13;7.53;;;3.77;;
52320;SDS011;38261;54.090;13.382;2023-02-28T06:15:38;5.80;;;3.00;;
52320;SDS011;38261;54.090;13.382;2023-02-28T06:17:00;4.40;;;2.87;;
52320;SDS011;38261;54.090;13.382;2023-02-28T06:18:24;7.67;;;3.80;;
52320;SDS011;38261;54.090;13.382;2023-02-28T06:19:46;8.37;;;4.17;;
52320;SDS011;38261;54.090;13.382;2023-02-28T06:21:09;9.27;;;3.90;;
52320;SDS011;38261;54.090;13.382;2023-02-28T06:22:31;8.13;;;4.80;;
52320;SDS011;38261;54.090;13.382;2023-02-28T06:23:53;8.83;;;4.53;;
52320;SDS011;38261;54.090;13.382;2023-02-28T06:25:16;11.73;;;4.17;;
52320;SDS011;38261;54.090;13.382;2023-02-28T06:26:38;6.93;;;3.90;;
52320;SDS011;38261;54.090;13.382;2023-02-28T06:28:00;4.07;;;2.90;;
52320;SDS011;38261;54.090;13.382;2023-02-28T06:29:23;6.43;;;3.77;;
52320;SDS011;38261;54.090;13.382;2023-02-28T06:30:45;7.43;;;4.20;;
52320;SDS011;38261;54.090;13.382;2023-02-28T06:32:07;5.30;;;3.93;;
52320;SDS011;38261;54.090;13.382;2023-02-28T06:33:29;6.33;;;3.30;;
52320;SDS011;38261;54.090;13.382;2023-02-28T06:34:51;10.97;;;4.33;;
52320;SDS011;38261;54.090;13.382;2023-02-28T06:36:14;11.93;;;4.07;;
52320;SDS011;38261;54.090;13.382;2023-02-28T06:37:37;5.00;;;3.33;;
52320;SDS011;38261;54.090;13.382;2023-02-28T06:39:02;11.70;;;3.77;;
52320;SDS011;38261;54.090;13.382;2023-02-28T06:40:24;6.63;;;4.13;;
52320;SDS011;38261;54.090;13.382;2023-02-28T06:41:46;7.17;;;3.50;;
52320;SDS011;38261;54.090;13.382;2023-02-28T06:43:16;9.27;;;4.10;;
52320;SDS011;38261;54.090;13.382;2023-02-28T06:44:38;7.03;;;3.20;;
52320;SDS011;38261;54.090;13.382;2023-02-28T06:46:01;8.60;;;4.90;;
52320;SDS011;38261;54.090;13.382;2023-02-28T06:47:25;7.60;;;4.40;;
52320;SDS011;38261;54.090;13.382;2023-02-28T06:48:47;9.03;;;4.73;;
52320;SDS011;38261;54.090;13.382;2023-02-28T06:50:10;13.40;;;5.80;;
52320;SDS011;38261;54.090;13.382;2023-02-28T06:51:33;9.60;;;6.03;;
52320;SDS011;38261;54.090;13.382;2023-02-28T06:52:55;11.50;;;5.70;;
52320;SDS011;38261;54.090;13.382;2023-02-28T06:54:18;10.47;;;4.93;;
52320;SDS011;38261;54.090;13.382;2023-02-28T06:55:40;13.03;;;7.13;;
52320;SDS011;38261;54.090;13.382;2023-02-28T06:57:02;12.43;;;5.50;;
52320;SDS011;38261;54.090;13.382;2023-02-28T06:58:24;11.60;;;4.80;;
52320;SDS011;38261;54.090;13.382;2023-02-28T06:59:46;10.90;;;4.87;;
52320;SDS011;38261;54.090;13.382;2023-02-28T07:01:10;8.90;;;4.90;;
52320;SDS011;38261;54.090;13.382;2023-02-28T07:02:32;12.30;;;4.70;;
52320;SDS011;38261;54.090;13.382;2023-02-28T07:03:55;15.27;;;5.40;;
52320;SDS011;38261;54.090;13.382;2023-02-28T07:05:17;13.10;;;4.57;;
52320;SDS011;38261;54.090;13.382;2023-02-28T07:06:39;13.47;;;6.37;;
52320;SDS011;38261;54.090;13.382;2023-02-28T07:08:02;12.10;;;5.20;;
52320;SDS011;38261;54.090;13.382;2023-02-28T07:09:25;8.87;;;4.83;;
52320;SDS011;38261;54.090;13.382;2023-02-28T07:10:52;9.50;;;4.90;;
52320;SDS011;38261;54.090;13.382;2023-02-28T07:12:15;14.60;;;6.63;;
52320;SDS011;38261;54.090;13.382;2023-02-28T07:13:37;11.77;;;5.97;;
52320;SDS011;38261;54.090;13.382;2023-02-28T07:15:00;11.20;;;5.80;;
52320;SDS011;38261;54.090;13.382;2023-02-28T07:16:23;8.87;;;4.50;;
52320;SDS011;38261;54.090;13.382;2023-02-28T07:17:46;10.20;;;5.43;;
52320;SDS011;38261;54.090;13.382;2023-02-28T07:19:08;13.43;;;4.73;;
52320;SDS011;38261;54.090;13.382;2023-02-28T07:20:31;6.40;;;3.87;;
52320;SDS011;38261;54.090;13.382;2023-02-28T07:21:53;13.63;;;4.30;;
52320;SDS011;38261;54.090;13.382;2023-02-28T07:23:15;11.73;;;3.80;;
52320;SDS011;38261;54.090;13.382;2023-02-28T07:24:37;11.60;;;3.57;;
52320;SDS011;38261;54.090;13.382;2023-02-28T07:25:59;14.37;;;4.23;;
52320;SDS011;38261;54.090;13.382;2023-02-28T07:27:21;8.27;;;3.03;;
52320;SDS011;38261;54.090;13.382;2023-02-28T07:28:47;12.43;;;5.20;;
52320;SDS011;38261;54.090;13.382;2023-02-28T07:30:10;12.43;;;5.90;;
52320;SDS011;38261;54.090;13.382;2023-02-28T07:31:33;12.33;;;4.30;;
52320;SDS011;38261;54.090;13.382;2023-02-28T07:32:55;5.80;;;3.50;;
52320;SDS011;38261;54.090;13.382;2023-02-28T07:34:17;11.30;;;4.07;;
52320;SDS011;38261;54.090;13.382;2023-02-28T07:35:40;11.57;;;3.80;;
52320;SDS011;38261;54.090;13.382;2023-02-28T07:37:02;5.43;;;3.80;;
52320;SDS011;38261;54.090;13.382;2023-02-28T07:38:26;9.87;;;3.10;;
52320;SDS011;38261;54.090;13.382;2023-02-28T07:39:48;5.70;;;3.20;;
52320;SDS011;38261;54.090;13.382;2023-02-28T07:41:10;3.40;;;3.03;;
52320;SDS011;38261;54.090;13.382;2023-02-28T07:42:32;8.07;;;3.17;;
52320;SDS011;38261;54.090;13.382;2023-02-28T07:43:54;8.53;;;3.90;;
52320;SDS011;38261;54.090;13.382;2023-02-28T07:45:18;9.03;;;3.20;;
52320;SDS011;38261;54.090;13.382;2023-02-28T07:46:41;10.33;;;3.67;;
52320;SDS011;38261;54.090;13.382;2023-02-28T07:48:03;5.80;;;3.43;;
52320;SDS011;38261;54.090;13.382;2023-02-28T07:49:25;9.30;;;3.07;;
52320;SDS011;38261;54.090;13.382;2023-02-28T07:50:56;7.13;;;3.70;;
52320;SDS011;38261;54.090;13.382;2023-02-28T07:52:19;9.00;;;3.20;;
52320;SDS011;38261;54.090;13.382;2023-02-28T07:53:41;7.00;;;3.40;;
52320;SDS011;38261;54.090;13.382;2023-02-28T07:55:04;6.00;;;3.60;;
52320;SDS011;38261;54.090;13.382;2023-02-28T07:56:28;4.87;;;3.60;;
52320;SDS011;38261;54.090;13.382;2023-02-28T07:57:50;5.00;;;3.80;;
52320;SDS011;38261;54.090;13.382;2023-02-28T07:59:12;6.63;;;3.67;;
52320;SDS011;38261;54.090;13.382;2023-02-28T08:00:34;9.20;;;3.70;;
52320;SDS011;38261;54.090;13.382;2023-02-28T08:01:57;10.27;;;3.93;;
52320;SDS011;38261;54.090;13.382;2023-02-28T08:03:20;6.70;;;4.30;;
52320;SDS011;38261;54.090;13.382;2023-02-28T08:04:44;9.47;;;4.23;;
52320;SDS011;38261;54.090;13.382;2023-02-28T08:06:08;6.53;;;4.50;;
52320;SDS011;38261;54.090;13.382;2023-02-28T08:07:38;7.90;;;4.47;;
52320;SDS011;38261;54.090;13.382;2023-02-28T08:09:00;8.73;;;4.30;;
52320;SDS011;38261;54.090;13.382;2023-02-28T08:10:22;10.73;;;5.40;;
52320;SDS011;38261;54.090;13.382;2023-02-28T08:11:45;13.40;;;5.97;;
52320;SDS011;38261;54.090;13.382;2023-02-28T08:13:07;16.27;;;7.50;;
52320;SDS011;38261;54.090;13.382;2023-02-28T08:14:29;10.17;;;5.53;;
52320;SDS011;38261;54.090;13.382;2023-02-28T08:15:51;9.90;;;5.93;;
52320;SDS011;38261;54.090;13.382;2023-02-28T08:17:13;8.17;;;5.07;;
52320;SDS011;38261;54.090;13.382;2023-02-28T08:18:35;8.67;;;4.73;;
52320;SDS011;38261;54.090;13.382;2023-02-28T08:19:57;6.17;;;3.60;;
52320;SDS011;38261;54.090;13.382;2023-02-28T08:21:20;8.37;;;3.50;;
52320;SDS011;38261;54.090;13.382;2023-02-28T08:22:42;5.83;;;3.90;;
52320;SDS011;38261;54.090;13.382;2023-02-28T08:24:06;4.77;;;3.07;;
52320;SDS011;38261;54.090;13.382;2023-02-28T08:25:28;5.20;;;2.90;;
52320;SDS011;38261;54.090;13.382;2023-02-28T08:26:50;4.50;;;2.53;;
52320;SDS011;38261;54.090;13.382;2023-02-28T08:28:12;3.97;;;2.60;;
52320;SDS011;38261;54.090;13.382;2023-02-28T08:29:36;3.93;;;2.97;;
52320;SDS011;38261;54.090;13.382;2023-02-28T08:30:59;4.40;;;3.03;;
52320;SDS011;38261;54.090;13.382;2023-02-28T08:32:21;4.00;;;2.80;;
52320;SDS011;38261;54.090;13.382;2023-02-28T08:33:50;2.73;;;2.27;;
52320;SDS011;38261;54.090;13.382;2023-02-28T08:35:14;3.03;;;2.50;;
52320;SDS011;38261;54.090;13.382;2023-02-28T08:36:37;3.37;;;2.40;;
52320;SDS011;38261;54.090;13.382;2023-02-28T08:37:59;4.27;;;2.30;;
52320;SDS011;38261;54.090;13.382;2023-02-28T08:39:21;6.63;;;2.60;;
52320;SDS011;38261;54.090;13.382;2023-02-28T08:40:43;2.70;;;2.03;;
52320;SDS011;38261;54.090;13.382;2023-02-28T08:42:05;2.40;;;2.17;;
52320;SDS011;38261;54.090;13.382;2023-02-28T08:43:28;5.43;;;3.07;;
52320;SDS011;38261;54.090;13.382;2023-02-28T08:44:50;3.50;;;2.43;;
52320;SDS011;38261;54.090;13.382;2023-02-28T08:46:13;7.10;;;2.80;;
52320;SDS011;38261;54.090;13.382;2023-02-28T08:47:35;3.87;;;2.40;;
52320;SDS011;38261;54.090;13.382;2023-02-28T08:48:57;3.40;;;2.43;;
52320;SDS011;38261;54.090;13.382;2023-02-28T08:50:21;3.03;;;2.03;;
52320;SDS011;38261;54.090;13.382;2023-02-28T08:51:43;3.47;;;1.90;;
52320;SDS011;38261;54.090;13.382;2023-02-28T08:53:06;2.83;;;1.90;;
52320;SDS011;38261;54.090;13.382;2023-02-28T08:54:28;3.33;;;1.60;;
52320;SDS011;38261;54.090;13.382;2023-02-28T08:55:56;3.10;;;1.83;;